createdAt,value
2018-04-27T00:01:09.367Z,95.97
2018-04-27T00:03:37.471Z,96.03
2018-04-27T00:06:05.602Z,96.08
2018-04-27T00:08:33.716Z,96.24
2018-04-27T00:11:01.824Z,96.49
2018-04-27T00:13:29.960Z,96.54
2018-04-27T00:15:58.079Z,96.56
2018-04-27T00:18:26.249Z,96.81
2018-04-27T00:20:54.334Z,97.14
2018-04-27T00:23:22.448Z,97.05
2018-04-27T00:25:50.569Z,97.15
2018-04-27T00:28:18.690Z,97.23
2018-04-27T00:30:46.815Z,97.34
2018-04-27T00:33:14.935Z,97.27
2018-04-27T00:35:43.060Z,97.27
2018-04-27T00:38:11.186Z,97.28
2018-04-27T00:40:39.330Z,97.25
2018-04-27T00:43:07.515Z,97.28
2018-04-27T00:45:35.615Z,97.22
2018-04-27T00:48:03.737Z,96.99
2018-04-27T00:50:31.865Z,97.04
2018-04-27T00:53:11.659Z,97.08
2018-04-27T00:55:39.777Z,97.01
2018-04-27T00:58:07.938Z,96.99
2018-04-27T01:00:36.180Z,96.99
2018-04-27T01:03:04.304Z,97.09
2018-04-27T01:05:32.451Z,97.06
2018-04-27T01:08:00.572Z,97.00
2018-04-27T01:10:28.700Z,97.03
2018-04-27T01:12:56.938Z,97.08
2018-04-27T01:15:25.083Z,97.11
2018-04-27T01:17:53.192Z,97.22
2018-04-27T01:20:21.335Z,97.41
2018-04-27T01:22:49.446Z,97.48
2018-04-27T01:25:17.597Z,97.49
2018-04-27T01:27:45.715Z,97.49
2018-04-27T01:30:13.837Z,97.45
2018-04-27T01:32:41.951Z,97.54
2018-04-27T01:35:10.165Z,97.43
2018-04-27T01:37:38.293Z,97.14
2018-04-27T01:40:06.429Z,97.33
2018-04-27T01:42:34.523Z,97.44
2018-04-27T01:45:02.695Z,97.59
2018-04-27T01:47:30.809Z,97.49
2018-04-27T01:49:58.934Z,97.39
2018-04-27T01:52:27.046Z,97.46
2018-04-27T01:54:55.170Z,97.54
2018-04-27T01:57:23.328Z,97.59
2018-04-27T01:59:51.437Z,97.47
2018-04-27T02:02:19.548Z,97.30
2018-04-27T02:04:47.673Z,97.34
2018-04-27T02:07:15.787Z,97.64
2018-04-27T02:09:43.915Z,97.52
2018-04-27T02:12:12.053Z,97.70
2018-04-27T02:14:40.155Z,97.96
2018-04-27T02:17:08.406Z,98.16
2018-04-27T02:19:36.533Z,98.31
2018-04-27T02:22:04.668Z,98.26
2018-04-27T02:24:32.804Z,97.93
2018-04-27T02:27:00.913Z,97.94
2018-04-27T02:29:29.041Z,97.93
2018-04-27T02:31:57.190Z,97.94
2018-04-27T02:34:25.300Z,98.03
2018-04-27T02:36:53.431Z,98.02
2018-04-27T02:39:21.607Z,97.86
2018-04-27T02:41:49.735Z,97.75
2018-04-27T02:44:17.891Z,97.91
2018-04-27T02:46:45.999Z,97.94
2018-04-27T02:49:14.127Z,98.00
2018-04-27T02:51:42.248Z,98.13
2018-04-27T02:54:10.364Z,98.28
2018-04-27T02:56:38.491Z,98.77
2018-04-27T02:59:06.613Z,99.12
2018-04-27T03:01:34.745Z,99.29
2018-04-27T03:04:02.872Z,99.27
2018-04-27T03:06:31.004Z,99.10
2018-04-27T03:08:59.159Z,99.04
2018-04-27T03:11:27.285Z,99.00
2018-04-27T03:13:55.396Z,99.11
2018-04-27T03:16:23.519Z,99.06
2018-04-27T03:18:51.638Z,99.14
2018-04-27T03:21:19.762Z,99.23
2018-04-27T03:23:47.995Z,99.21
2018-04-27T03:26:16.005Z,99.08
2018-04-27T03:28:44.159Z,99.03
2018-04-27T03:31:12.272Z,99.04
2018-04-27T03:33:40.402Z,99.10
2018-04-27T03:36:08.522Z,99.18
2018-04-27T03:38:36.643Z,99.11
2018-04-27T03:41:04.769Z,98.99
2018-04-27T03:43:32.918Z,98.76
2018-04-27T03:46:01.053Z,98.71
2018-04-27T03:48:29.190Z,98.66
2018-04-27T03:50:57.338Z,98.73
2018-04-27T03:53:25.454Z,98.73
2018-04-27T03:55:53.569Z,98.71
2018-04-27T03:58:21.706Z,98.54
2018-04-27T04:01:01.525Z,98.17
2018-04-27T04:03:41.320Z,98.19
2018-04-27T04:06:09.440Z,98.10
2018-04-27T04:08:37.565Z,98.03
2018-04-27T04:11:05.767Z,98.21
2018-04-27T04:13:33.908Z,98.45
2018-04-27T04:16:02.064Z,98.44
2018-04-27T04:18:30.175Z,98.48
2018-04-27T04:20:58.320Z,98.70
2018-04-27T04:23:26.425Z,99.14
2018-04-27T04:25:54.597Z,99.51
2018-04-27T04:28:22.734Z,99.59
2018-04-27T04:30:52.559Z,99.59
2018-04-27T04:33:20.699Z,99.78
2018-04-27T04:35:48.834Z,99.71
2018-04-27T04:38:16.997Z,99.69
2018-04-27T04:40:45.070Z,99.73
2018-04-27T04:43:13.221Z,99.97
2018-04-27T04:45:41.337Z,99.82
2018-04-27T04:48:09.449Z,99.37
2018-04-27T04:50:37.592Z,99.17
2018-04-27T04:53:05.747Z,98.79
2018-04-27T04:55:33.895Z,99.11
2018-04-27T04:58:02.023Z,98.89
2018-04-27T05:00:30.204Z,99.26
2018-04-27T05:02:58.399Z,99.87
2018-04-27T05:05:26.459Z,99.99
2018-04-27T05:07:54.581Z,99.68
2018-04-27T05:10:22.699Z,99.60
2018-04-27T05:12:50.850Z,99.41
2018-04-27T05:15:18.963Z,99.13
2018-04-27T05:17:47.123Z,99.26
2018-04-27T05:20:14.733Z,99.32
2018-04-27T05:22:42.863Z,99.40
2018-04-27T05:25:10.998Z,99.69
2018-04-27T05:27:39.136Z,99.80
2018-04-27T05:30:07.260Z,99.84
2018-04-27T05:32:35.396Z,100.00
2018-04-27T05:35:03.634Z,99.92
2018-04-27T05:37:31.766Z,99.43
2018-04-27T05:42:34.152Z,98.94
2018-04-27T05:45:02.288Z,98.87
2018-04-27T05:47:30.446Z,99.09
2018-04-27T05:49:58.564Z,98.84
2018-04-27T05:52:26.693Z,98.92
2018-04-27T05:54:54.826Z,99.28
2018-04-27T05:57:23.005Z,99.66
2018-04-27T05:59:51.149Z,98.87
2018-04-27T06:02:19.261Z,99.03
2018-04-27T06:04:47.377Z,98.71
2018-04-27T06:07:15.514Z,97.83
2018-04-27T06:09:43.641Z,96.99
2018-04-27T06:12:11.765Z,96.67
2018-04-27T06:14:39.931Z,95.68
2018-04-27T06:17:08.094Z,95.82
2018-04-27T06:19:36.231Z,96.01
2018-04-27T06:22:04.361Z,96.89
2018-04-27T06:24:32.487Z,96.47
2018-04-27T06:27:00.612Z,96.70
2018-04-27T06:29:28.746Z,96.36
2018-04-27T06:31:56.879Z,93.23
2018-04-27T06:34:25.051Z,93.28
2018-04-27T06:36:53.192Z,94.06
2018-04-27T06:39:21.402Z,92.48
2018-04-27T06:41:49.460Z,91.39
2018-04-27T06:44:17.596Z,91.77
2018-04-27T06:46:45.711Z,91.71
2018-04-27T06:49:13.841Z,91.42
2018-04-27T06:51:41.983Z,92.44
2018-04-27T06:54:10.109Z,91.08
2018-04-27T06:56:38.262Z,89.02
2018-04-27T06:59:06.456Z,90.81
2018-04-27T07:01:34.520Z,89.72
2018-04-27T07:04:02.675Z,88.31
2018-04-27T07:06:30.835Z,89.79
2018-04-27T07:08:58.928Z,88.72
2018-04-27T07:11:27.113Z,88.93
2018-04-27T07:13:55.260Z,88.17
2018-04-27T07:16:23.383Z,86.73
2018-04-27T07:18:51.528Z,85.64
2018-04-27T07:21:19.661Z,84.75
2018-04-27T07:23:47.924Z,86.92
2018-04-27T07:26:16.181Z,83.53
2018-04-27T07:28:44.346Z,84.47
2018-04-27T07:31:12.473Z,84.28
2018-04-27T07:33:40.609Z,82.65
2018-04-27T07:36:08.736Z,82.05
2018-04-27T07:38:36.872Z,80.88
2018-04-27T07:41:05.015Z,76.71
2018-04-27T07:43:33.180Z,76.73
2018-04-27T07:46:01.351Z,78.42
2018-04-27T07:48:29.475Z,74.55
2018-04-27T07:50:57.610Z,73.35
2018-04-27T07:53:25.720Z,72.49
2018-04-27T07:55:53.861Z,73.39
2018-04-27T07:58:21.984Z,70.53
2018-04-27T08:00:50.109Z,69.14
2018-04-27T08:03:18.237Z,64.61
2018-04-27T08:05:46.368Z,60.83
2018-04-27T08:08:14.560Z,64.06
2018-04-27T08:10:42.610Z,61.35
2018-04-27T08:13:10.735Z,61.42
2018-04-27T08:15:38.919Z,63.79
2018-04-27T08:18:08.651Z,62.00
2018-04-27T08:20:36.761Z,61.03
2018-04-27T08:23:05.332Z,57.90
2018-04-27T08:25:34.350Z,59.14
2018-04-27T08:28:02.479Z,59.51
2018-04-27T08:30:30.593Z,58.51
2018-04-27T08:32:58.722Z,57.82
2018-04-27T08:35:26.850Z,56.36
2018-04-27T08:37:54.990Z,60.61
2018-04-27T08:40:23.112Z,59.92
2018-04-27T08:42:51.237Z,59.79
2018-04-27T08:45:19.356Z,59.19
2018-04-27T08:47:47.457Z,56.55
2018-04-27T08:50:15.586Z,57.13
2018-04-27T08:52:43.718Z,57.31
2018-04-27T08:55:11.844Z,58.69
2018-04-27T08:57:39.970Z,56.31
2018-04-27T09:00:08.109Z,55.52
2018-04-27T09:02:36.239Z,60.81
2018-04-27T09:05:04.403Z,56.45
2018-04-27T09:07:32.553Z,55.34
2018-04-27T09:10:00.689Z,56.26
2018-04-27T09:12:28.816Z,58.84
2018-04-27T09:14:56.962Z,54.59
2018-04-27T09:17:25.081Z,55.33
2018-04-27T09:19:53.200Z,56.30
2018-04-27T09:22:21.353Z,54.24
2018-04-27T09:24:49.483Z,54.35
2018-04-27T09:27:17.617Z,52.36
2018-04-27T09:29:45.758Z,52.68
2018-04-27T09:32:13.905Z,54.45
2018-04-27T09:34:42.036Z,50.22
2018-04-27T09:37:10.326Z,51.28
2018-04-27T09:39:38.453Z,52.02
2018-04-27T09:42:06.642Z,52.33
2018-04-27T09:44:34.763Z,54.37
2018-04-27T09:47:02.903Z,54.75
2018-04-27T09:49:31.022Z,50.66
2018-04-27T09:51:59.259Z,50.39
2018-04-27T09:54:27.395Z,52.46
2018-04-27T09:56:55.501Z,51.19
2018-04-27T09:59:23.641Z,51.88
2018-04-27T10:01:51.781Z,54.78
2018-04-27T10:04:19.920Z,52.35
2018-04-27T10:06:48.047Z,52.91
2018-04-27T10:09:16.178Z,49.28
2018-04-27T10:11:44.317Z,49.71
2018-04-27T10:14:12.446Z,51.14
2018-04-27T10:16:40.566Z,46.53
2018-04-27T10:19:08.739Z,47.30
2018-04-27T10:21:36.860Z,48.58
2018-04-27T10:24:05.096Z,46.54
2018-04-27T10:26:33.238Z,45.08
2018-04-27T10:29:01.392Z,45.06
2018-04-27T10:31:29.578Z,45.86
2018-04-27T10:33:57.686Z,43.84
2018-04-27T10:36:25.831Z,45.40
2018-04-27T10:38:53.959Z,44.81
2018-04-27T10:41:22.061Z,44.37
2018-04-27T10:43:50.194Z,47.16
2018-04-27T10:46:18.398Z,43.62
2018-04-27T10:48:46.504Z,43.35
2018-04-27T10:51:14.650Z,42.34
2018-04-27T10:53:42.780Z,44.92
2018-04-27T10:56:10.959Z,44.52
2018-04-27T10:58:39.027Z,39.85
2018-04-27T11:01:08.123Z,39.91
2018-04-27T11:03:36.248Z,42.61
2018-04-27T11:06:04.370Z,42.14
2018-04-27T11:08:32.483Z,40.03
2018-04-27T11:11:00.708Z,40.24
2018-04-27T11:13:28.779Z,39.89
2018-04-27T11:15:56.910Z,43.23
2018-04-27T11:18:25.040Z,39.95
2018-04-27T11:20:53.213Z,40.69
2018-04-27T11:23:21.336Z,43.42
2018-04-27T11:25:49.473Z,42.12
2018-04-27T11:28:17.612Z,41.95
2018-04-27T11:30:45.761Z,41.82
2018-04-27T11:33:13.882Z,40.18
2018-04-27T11:35:42.027Z,39.86
2018-04-27T11:38:10.155Z,40.91
2018-04-27T11:40:38.274Z,40.55
2018-04-27T11:43:06.574Z,39.46
2018-04-27T11:45:35.048Z,39.45
2018-04-27T11:48:03.219Z,39.37
2018-04-27T11:50:31.422Z,38.67
2018-04-27T11:52:59.526Z,38.68
2018-04-27T11:55:27.670Z,39.57
2018-04-27T11:57:55.812Z,38.45
2018-04-27T12:00:24.731Z,39.70
2018-04-27T12:02:52.866Z,37.68
2018-04-27T12:05:21.037Z,40.29
2018-04-27T12:07:49.210Z,38.08
2018-04-27T12:10:17.317Z,38.00
2018-04-27T12:12:45.469Z,41.59
2018-04-27T12:15:13.604Z,39.76
2018-04-27T12:17:41.765Z,40.05
2018-04-27T12:20:09.900Z,38.42
2018-04-27T12:22:38.034Z,40.28
2018-04-27T12:25:06.199Z,39.95
2018-04-27T12:27:34.358Z,40.56
2018-04-27T12:30:02.542Z,38.28
2018-04-27T12:32:30.681Z,37.29
2018-04-27T12:34:58.837Z,39.87
2018-04-27T12:37:26.977Z,38.60
2018-04-27T12:39:55.103Z,38.61
2018-04-27T12:42:23.303Z,40.07
2018-04-27T12:44:51.407Z,41.10
2018-04-27T12:47:19.533Z,38.05
2018-04-27T12:49:47.688Z,39.01
2018-04-27T12:52:15.872Z,40.91
2018-04-27T12:54:43.939Z,41.51
2018-04-27T12:57:12.212Z,41.05
2018-04-27T12:59:41.160Z,40.00
2018-04-27T13:02:09.268Z,38.97
2018-04-27T13:04:37.438Z,39.56
2018-04-27T13:07:05.576Z,37.16
2018-04-27T13:09:33.690Z,37.32
2018-04-27T13:12:01.933Z,36.85
2018-04-27T13:14:29.997Z,37.82
2018-04-27T13:16:58.110Z,38.51
2018-04-27T13:19:26.256Z,37.73
2018-04-27T13:21:54.361Z,37.90
2018-04-27T13:24:22.476Z,38.17
2018-04-27T13:26:50.604Z,38.66
2018-04-27T13:29:18.722Z,37.21
2018-04-27T13:31:46.839Z,39.80
2018-04-27T13:34:15.002Z,39.87
2018-04-27T13:36:43.122Z,39.88
2018-04-27T13:39:11.235Z,39.73
2018-04-27T13:41:39.368Z,37.57
2018-04-27T13:44:07.482Z,39.02
2018-04-27T13:46:35.591Z,38.78
2018-04-27T13:49:03.713Z,38.35
2018-04-27T13:51:31.843Z,39.00
2018-04-27T13:53:59.953Z,39.35
2018-04-27T13:56:28.105Z,36.53
2018-04-27T13:58:56.210Z,38.64
2018-04-27T14:01:24.343Z,39.57
2018-04-27T14:03:52.452Z,38.28
2018-04-27T14:06:20.585Z,37.06
2018-04-27T14:08:48.708Z,39.03
2018-04-27T14:11:16.995Z,37.22
2018-04-27T14:13:45.125Z,39.10
2018-04-27T14:16:13.257Z,38.26
2018-04-27T14:18:41.394Z,37.71
2018-04-27T14:21:10.178Z,36.78
2018-04-27T14:23:38.314Z,36.98
2018-04-27T14:26:06.455Z,38.57
2018-04-27T14:28:34.580Z,37.34
2018-04-27T14:31:02.698Z,37.30
2018-04-27T14:33:30.851Z,36.14
2018-04-27T14:35:58.969Z,36.66
2018-04-27T14:38:27.084Z,36.91
2018-04-27T14:40:55.261Z,36.80
2018-04-27T14:43:23.333Z,35.81
2018-04-27T14:45:51.454Z,36.42
2018-04-27T14:48:19.596Z,37.64
2018-04-27T14:50:47.718Z,36.56
2018-04-27T14:53:15.834Z,37.97
2018-04-27T14:55:43.970Z,35.64
2018-04-27T14:58:12.087Z,37.19
2018-04-27T15:00:40.199Z,36.92
2018-04-27T15:03:08.397Z,37.81
2018-04-27T15:05:36.553Z,37.35
2018-04-27T15:08:04.652Z,38.97
2018-04-27T15:10:32.765Z,37.67
2018-04-27T15:13:00.882Z,38.06
2018-04-27T15:15:29.030Z,38.28
2018-04-27T15:17:57.154Z,39.03
2018-04-27T15:20:25.281Z,38.99
2018-04-27T15:22:53.415Z,37.93
2018-04-27T15:25:21.539Z,37.84
2018-04-27T15:27:49.659Z,37.63
2018-04-27T15:30:17.799Z,37.22
2018-04-27T15:32:45.931Z,39.27
2018-04-27T15:35:14.049Z,37.96
2018-04-27T15:37:42.166Z,38.33
2018-04-27T15:40:10.318Z,39.02
2018-04-27T15:42:38.447Z,38.69
2018-04-27T15:45:06.670Z,38.46
2018-04-27T15:47:34.786Z,38.79
2018-04-27T15:50:02.933Z,37.60
2018-04-27T15:52:31.047Z,37.89
2018-04-27T15:54:59.173Z,37.87
2018-04-27T15:57:27.366Z,38.73
2018-04-27T15:59:55.429Z,39.05
2018-04-27T16:02:23.565Z,39.13
2018-04-27T16:04:51.674Z,39.43
2018-04-27T16:07:19.811Z,38.90
2018-04-27T16:09:47.928Z,39.26
2018-04-27T16:12:16.044Z,39.60
2018-04-27T16:14:44.159Z,40.02
2018-04-27T16:17:12.293Z,40.77
2018-04-27T16:19:40.407Z,40.47
2018-04-27T16:22:08.547Z,40.06
2018-04-27T16:24:36.667Z,40.46
2018-04-27T16:27:04.809Z,40.48
2018-04-27T16:29:32.998Z,40.53
2018-04-27T16:32:01.154Z,40.04
2018-04-27T16:34:29.298Z,39.82
2018-04-27T16:36:57.411Z,40.49
2018-04-27T16:39:25.543Z,41.07
2018-04-27T16:41:53.739Z,42.06
2018-04-27T16:44:21.795Z,42.38
2018-04-27T16:46:49.907Z,43.14
2018-04-27T16:49:18.026Z,42.70
2018-04-27T16:51:46.150Z,43.24
2018-04-27T16:54:14.288Z,43.76
2018-04-27T16:56:42.402Z,43.80
2018-04-27T16:59:10.521Z,43.76
2018-04-27T17:01:38.678Z,44.67
2018-04-27T17:04:06.790Z,44.03
2018-04-27T17:06:34.948Z,44.35
2018-04-27T17:09:03.098Z,45.43
2018-04-27T17:11:31.209Z,45.37
2018-04-27T17:13:59.333Z,45.83
2018-04-27T17:16:27.473Z,45.81
2018-04-27T17:18:55.607Z,46.53
2018-04-27T17:21:23.731Z,47.23
2018-04-27T17:23:51.859Z,47.50
2018-04-27T17:26:19.979Z,48.26
2018-04-27T17:28:48.166Z,48.41
2018-04-27T17:31:16.240Z,48.64
2018-04-27T17:33:44.353Z,49.05
2018-04-27T17:36:12.476Z,49.72
2018-04-27T17:38:40.605Z,49.72
2018-04-27T17:41:08.768Z,50.58
2018-04-27T17:43:36.894Z,50.36
2018-04-27T17:46:06.074Z,50.60
2018-04-27T17:48:34.197Z,51.01
2018-04-27T17:51:02.313Z,51.47
2018-04-27T17:53:30.463Z,51.72
2018-04-27T17:55:58.558Z,51.90
2018-04-27T17:58:26.681Z,52.85
2018-04-27T18:00:54.795Z,53.34
2018-04-27T18:03:22.906Z,53.29
2018-04-27T18:05:51.025Z,53.45
2018-04-27T18:08:19.170Z,54.27
2018-04-27T18:10:47.282Z,54.06
2018-04-27T18:13:15.407Z,54.18
2018-04-27T18:15:43.547Z,54.68
2018-04-27T18:18:11.737Z,55.14
2018-04-27T18:20:40.021Z,55.61
2018-04-27T18:23:08.158Z,55.88
2018-04-27T18:25:36.306Z,56.47
2018-04-27T18:28:04.409Z,56.99
2018-04-27T18:30:32.526Z,57.62
2018-04-27T18:33:00.643Z,58.08
2018-04-27T18:35:28.767Z,58.80
2018-04-27T18:37:56.929Z,58.67
2018-04-27T18:40:33.702Z,58.57
2018-04-27T18:43:01.816Z,58.62
2018-04-27T18:45:29.933Z,58.89
2018-04-27T18:47:58.091Z,59.69
2018-04-27T18:50:29.042Z,59.96
2018-04-27T18:52:57.172Z,60.14
2018-04-27T18:55:25.295Z,60.40
2018-04-27T18:57:53.442Z,60.39
2018-04-27T19:00:21.556Z,60.86
2018-04-27T19:02:49.677Z,60.83
2018-04-27T19:05:17.818Z,60.86
2018-04-27T19:07:45.939Z,60.70
2018-04-27T19:12:41.382Z,60.92
2018-04-27T19:15:10.430Z,61.03
2018-04-27T19:17:38.546Z,60.80
2018-04-27T19:20:06.665Z,61.01
2018-04-27T19:22:34.791Z,60.71
2018-04-27T19:25:02.945Z,61.33
2018-04-27T19:27:31.082Z,61.56
2018-04-27T19:30:00.051Z,62.63
2018-04-27T19:32:28.173Z,63.21
2018-04-27T19:34:56.301Z,63.12
2018-04-27T19:37:24.422Z,63.65
2018-04-27T19:39:52.573Z,63.20
2018-04-27T19:42:20.732Z,63.49
2018-04-27T19:44:48.854Z,63.78
2018-04-27T19:47:16.970Z,63.98
2018-04-27T19:49:45.131Z,64.43
2018-04-27T19:52:13.246Z,64.50
2018-04-27T19:54:41.361Z,64.49
2018-04-27T19:57:10.533Z,64.37
2018-04-27T19:59:38.674Z,63.65
2018-04-27T20:02:06.791Z,63.60
2018-04-27T20:04:34.920Z,64.05
2018-04-27T20:07:03.040Z,65.08
2018-04-27T20:09:31.159Z,66.20
2018-04-27T20:11:59.320Z,67.08
2018-04-27T20:14:28.123Z,67.65
2018-04-27T20:16:56.326Z,68.75
2018-04-27T20:19:24.407Z,69.81
2018-04-27T20:21:52.621Z,70.40
2018-04-27T20:24:20.687Z,70.64
2018-04-27T20:26:48.802Z,71.08
2018-04-27T20:29:16.933Z,71.80
2018-04-27T20:31:45.051Z,72.34
2018-04-27T20:34:13.179Z,72.53
2018-04-27T20:36:41.296Z,72.82
2018-04-27T20:39:09.427Z,72.99
2018-04-27T20:41:37.557Z,73.00
2018-04-27T20:44:05.672Z,72.83
2018-04-27T20:46:33.792Z,73.59
2018-04-27T20:49:01.918Z,74.59
2018-04-27T20:51:30.037Z,75.18
2018-04-27T20:54:01.792Z,75.64
2018-04-27T20:56:31.461Z,75.62
2018-04-27T20:58:59.583Z,75.87
2018-04-27T21:01:27.705Z,75.14
2018-04-27T21:03:55.846Z,74.84
2018-04-27T21:06:23.967Z,74.51
2018-04-27T21:08:52.090Z,75.11
2018-04-27T21:11:20.223Z,75.75
2018-04-27T21:13:48.346Z,75.69
2018-04-27T21:16:16.464Z,75.87
2018-04-27T21:18:44.618Z,76.54
2018-04-27T21:21:12.751Z,77.19
2018-04-27T21:23:40.876Z,77.79
2018-04-27T21:26:08.992Z,78.08
2018-04-27T21:28:37.122Z,78.22
2018-04-27T21:31:08.146Z,78.33
2018-04-27T21:33:37.294Z,78.24
2018-04-27T21:36:06.326Z,78.36
2018-04-27T21:38:46.637Z,78.12
2018-04-27T21:41:17.610Z,78.42
2018-04-27T21:43:45.728Z,78.79
2018-04-27T21:46:13.850Z,78.87
2018-04-27T21:48:41.989Z,79.35
2018-04-27T21:51:10.117Z,79.85
2018-04-27T21:53:38.238Z,80.15
2018-04-27T21:56:06.345Z,80.60
2018-04-27T21:58:34.469Z,81.30
2018-04-27T22:01:02.633Z,81.58
2018-04-27T22:03:30.737Z,81.53
2018-04-27T22:06:09.632Z,82.39
2018-04-27T22:08:43.476Z,82.16
2018-04-27T22:11:16.985Z,82.14
2018-04-27T22:13:45.107Z,82.48
2018-04-27T22:16:23.066Z,82.38
2018-04-27T22:18:51.199Z,82.26
2018-04-27T22:21:19.361Z,83.26
2018-04-27T22:23:47.485Z,84.34
2018-04-27T22:26:17.551Z,85.04
2018-04-27T22:28:49.308Z,85.66
2018-04-27T22:31:17.427Z,85.64
2018-04-27T22:33:45.533Z,85.88
2018-04-27T22:36:19.402Z,85.80
2018-04-27T22:38:50.225Z,85.30
2018-04-27T22:41:18.349Z,85.27
2018-04-27T22:43:49.044Z,85.22
2018-04-27T22:46:17.173Z,85.60
2018-04-27T22:48:51.323Z,86.63
2018-04-27T22:51:22.304Z,87.04
2018-04-27T22:53:52.854Z,87.17
2018-04-27T22:59:14.550Z,86.47
2018-04-27T23:01:42.662Z,86.66
2018-04-27T23:04:10.775Z,86.56
2018-04-27T23:06:38.945Z,86.32
2018-04-27T23:09:07.191Z,86.11
2018-04-27T23:11:35.319Z,86.00
2018-04-27T23:14:03.468Z,86.53
2018-04-27T23:16:31.582Z,86.60
2018-04-27T23:18:59.712Z,86.88
2018-04-27T23:22:04.197Z,87.41
2018-04-27T23:24:40.110Z,87.07
2018-04-27T23:27:08.223Z,86.90
2018-04-27T23:29:36.338Z,86.80
2018-04-27T23:32:04.466Z,86.82
2018-04-27T23:34:32.596Z,86.82
2018-04-27T23:37:00.712Z,86.87
2018-04-27T23:39:28.845Z,87.11
2018-04-27T23:41:56.980Z,87.36
2018-04-27T23:44:25.103Z,87.51
2018-04-27T23:46:53.240Z,87.61
2018-04-27T23:49:21.373Z,87.84
2018-04-27T23:51:50.447Z,88.14
2018-04-27T23:54:18.565Z,88.26
2018-04-27T23:56:47.360Z,88.39
2018-04-27T23:59:16.338Z,88.50
